DO5RS-5 Weather Reports


time (UTC)temp
C
wind
direction
speed
KPH
gust
KPH
rain 1hr
cm
rain 24hr
cm
rain mn
cm
humidity
%
barometer
mb
20190422002904 12 0.0 0.0 0.00 0.00 0.00 55 1020.3
20190421235905 13 0.0 0.0 0.00 0.00 0.00 49 1020.3
20190421234905 13 0.0 0.0 0.00 0.00 0.00 49 1020.4
20190421230905 14 0.0 0.0 0.00 0.00 0.00 48 1020.6
20190421225905 14 0.0 0.0 0.00 0.00 0.00 48 1020.7
20190421224905 14 0.0 0.0 0.00 0.00 0.00 49 1020.7
20190421222903 15 0.0 0.0 0.00 0.00 0.00 46 1020.5
20190421221904 15 0.0 0.0 0.00 0.00 0.00 46 1020.5
20190421214904 16 0.0 0.0 0.00 0.00 0.00 44 1020.6
20190421213904 16 0.0 0.0 0.00 0.00 0.00 44 1020.7
20190421212904 16 0.0 0.0 0.00 0.00 0.00 43 1020.6
20190421210905 16 0.0 0.0 0.00 0.00 0.00 42 1020.6
20190421205904 17 0.0 0.0 0.00 0.00 0.00 41 1020.6
20190421204905 17 0.0 0.0 0.00 0.00 0.00 42 1020.5
20190421200904 17 0.0 0.0 0.00 0.00 0.00 39 1020.7
20190421193905 18 0.0 0.0 0.00 0.00 0.00 37 1020.6
20190421191904 19 0.0 0.0 0.00 0.00 0.00 34 1020.5
20190421190905 19 0.0 0.0 0.00 0.00 0.00 33 1020.3
20190421182909 21 0.0 0.0 0.00 0.00 0.00 30 1020.0
20190421181904 21 0.0 0.0 0.00 0.00 0.00 31 1019.9
20190421175903 21 0.0 0.0 0.00 0.00 0.00 30 1019.9
20190421174904 22 0.0 0.0 0.00 0.00 0.00 29 1019.9
20190421172905 23 0.0 0.0 0.00 0.00 0.00 29 1019.8
20190421170904 23 0.0 0.0 0.00 0.00 0.00 29 1019.8
20190421164904 24 0.0 0.0 0.00 0.00 0.00 28 1019.9
20190421162904 24 0.0 0.0 0.00 0.00 0.00 27 1020.2
20190421160905 25 0.0 0.0 0.00 0.00 0.00 26 1020.3
20190421151904 26 0.0 0.0 0.00 0.00 0.00 27 1020.6
20190421144905 26 0.0 0.0 0.00 0.00 0.00 25 1021.0
20190421142905 26 0.0 0.0 0.00 0.00 0.00 25 1021.1
20190421141904 26 0.0 0.0 0.00 0.00 0.00 25 1021.3
20190421135904 27 0.0 0.0 0.00 0.00 0.00 25 1021.6
20190421134904 26 0.0 0.0 0.00 0.00 0.00 25 1021.6
20190421133905 27 0.0 0.0 0.00 0.00 0.00 23 1021.7
20190421130905 27 0.0 0.0 0.00 0.00 0.00 24 1022.2
20190421125904 26 0.0 0.0 0.00 0.00 0.00 25 1022.5
20190421124905 27 0.0 0.0 0.00 0.00 0.00 22 1022.6
20190421122903 26 0.0 0.0 0.00 0.00 0.00 24 1022.9
20190421121904 27 0.0 0.0 0.00 0.00 0.00 25 1023.0
20190421120904 27 0.0 0.0 0.00 0.00 0.00 23 1023.1
20190421115904 26 0.0 0.0 0.00 0.00 0.00 24 1023.4
20190421114905 27 0.0 0.0 0.00 0.00 0.00 22 1023.3
20190421112904 26 0.0 0.0 0.00 0.00 0.00 26 1023.6
20190421103910 26 0.0 0.0 0.00 0.00 0.00 25 1024.4
20190421101909 25 0.0 0.0 0.00 0.00 0.00 25 1024.7
20190421095904 24 0.0 0.0 0.00 0.00 0.00 26 1025.1
20190421093905 25 0.0 0.0 0.00 0.00 0.00 27 1025.3
20190421091904 24 0.0 0.0 0.00 0.00 0.00 31 1025.7
20190421090904 24 0.0 0.0 0.00 0.00 0.00 31 1025.7
20190421085804 23 0.0 0.0 0.00 0.00 0.00 32 1025.6
20190421084203 23 0.0 0.0 0.00 0.00 0.00 31 1025.9
20190421082904 23 0.0 0.0 0.00 0.00 0.00 31 1026.0
20190421081905 23 0.0 0.0 0.00 0.00 0.00 31 1026.1
20190421075904 23 0.0 0.0 0.00 0.00 0.00 31 1026.2
20190421075604 23 0.0 0.0 0.00 0.00 0.00 31 1026.4
20190421075504 23 0.0 0.0 0.00 0.00 0.00 31 1026.3
20190421075404 23 0.0 0.0 0.00 0.00 0.00 31 1026.4
20190421075204 23 0.0 0.0 0.00 0.00 0.00 31 1026.4
20190421075003 23 0.0 0.0 0.00 0.00 0.00 33 1026.4
20190421073905 22 0.0 0.0 0.00 0.00 0.00 33 1026.6
20190421072904 21 0.0 0.0 0.00 0.00 0.00 33 1026.2
20190421071905 21 0.0 0.0 0.00 0.00 0.00 34 1026.9
20190421065904 19 0.0 0.0 0.00 0.00 0.00 37 1027.2
20190421060906 12 0.0 0.0 0.00 0.00 0.00 53 1028.3
20190421054904 11 0.0 0.0 0.00 0.00 0.00 53 1028.6
20190421053905 11 0.0 0.0 0.00 0.00 0.00 55 1028.6
20190421051905 10 0.0 0.0 0.00 0.00 0.00 56 1028.7
20190421050904 10 0.0 0.0 0.00 0.00 0.00 59 1028.8
20190421045904 9 0.0 0.0 0.00 0.00 0.00 61 1027.9
20190421044905 9 0.0 0.0 0.00 0.00 0.00 61 1028.8
20190421043904 10 0.0 0.0 0.00 0.00 0.00 61 1029.0
20190421042904 10 0.0 0.0 0.00 0.00 0.00 61 1029.0
20190421035905 10 0.0 0.0 0.00 0.00 0.00 58 1028.9
20190421032905 10 0.0 0.0 0.00 0.00 0.00 58 1029.0
20190421031904 11 0.0 0.0 0.00 0.00 0.00 57 1028.9
20190421025945 11 0.0 0.0 0.00 0.00 0.00 55 1029.0
20190421024904 11 0.0 0.0 0.00 0.00 0.00 57 1029.2
20190421023903 10 0.0 0.0 0.00 0.00 0.00 58 1029.4
20190421022904 10 0.0 0.0 0.00 0.00 0.00 58 1029.4
20190421020904 11 0.0 0.0 0.00 0.00 0.00 56 1029.5
20190421013904 11 0.0 0.0 0.00 0.00 0.00 55 1029.8
20190421011905 11 0.0 0.0 0.00 0.00 0.00 55 1029.9
20190421004905 12 0.0 0.0 0.00 0.00 0.00 54 1030.1